Terminal Aerodrome Forecast
Issued by NWS Albany, NY

Home | Current Version | Previous Version | Text Only | Print | Product List | Glossary On
Versions: 1 2 3 4 5 6 7 8 9 10 11 12 13 14 15 16 17 18 19 20 21 22 23 24
000
FTUS41 KALY 301138
TAFGFL
TAF
KGFL 301138Z 3012/0112 VRB03KT P6SM BKN120
     FM301300 16007KT P6SM VCSH SCT050 OVC080
      TEMPO 3014/3017 3SM -SHRA BR BKN025 OVC040
     FM010200 17003KT 6SM -SHRA BR BKN040 OVC070
     FM010800 17005KT 3SM BR VCSH SCT008 OVC015=

USA.gov is the U.S. government's official web portal to all federal, state and local government web resources and services.